• Join FlightAware (Why Join?)
  • Login
  • US Flag 
12:37AM EST


 

Airport Tracker/Info


-or-


 

Live Flight TrackerFlight Track Log ✈ N42HN ✈ 28-Jun-2013 ✈ KAKR - KABR

Flight Track Log - Related Links

Times and Time Zones

All times are in EDT time to prevent confusion due to time zone crossing. See the N42HN flight status page for this flight to view local times or setup timezone preferences in your user account.

Time Position Orientation Groundspeed Altitude Reporting Facility
EDT Latitude Longitude Course Direction KTS MPH feet Rate Location/Type
02:49PM 41.0014 -81.5242 276° West 219 252 3,000  Level Cleveland Center
02:50PM 40.9508 -81.5728 216° Southwest 242 278 6,600 3,480 Climbing Cleveland Center
02:51PM 40.8983 -81.6325 221° Southwest 251 289 10,000 3,300 Climbing Cleveland Center
02:52PM 40.8497 -81.6839 219° Southwest 256 295 13,300 3,240 Climbing Cleveland Center
02:53PM 40.8053 -81.7517 229° Southwest 256 295 16,500 2,880 Climbing Cleveland Center
02:54PM 40.8147 -81.8450 278° West 238 274 19,100 2,340 Climbing Cleveland Center
02:55PM 40.8305 -82.0122 276° West  Level FlightAware Approximate
02:55PM 40.8303 -81.9497 281° West 272 313 21,200  Level Cleveland Center
02:56PM 40.8392 -82.0678 276° West 310 357 23,000 1,920 Climbing Cleveland Center
02:57PM 40.8500 -82.2000 276° West 331 381 25,100 2,340 Climbing Cleveland Center
02:58PM 40.8922 -82.3081 297° West 331 381 27,700 1,800 Climbing Cleveland Center
02:59PM 40.9342 -82.4247 295° West 343 395 28,800 900 Climbing Cleveland Center
03:00PM 40.9819 -82.5469 297° West 355 409 29,600 1,080 Climbing Cleveland Center
03:01PM 41.0278 -82.6722 296° West 379 436 31,000 1,800 Climbing Cleveland Center
03:02PM 41.0775 -82.7978 298° West 386 444 33,200 1,740 Climbing Cleveland Center
03:03PM 41.1189 -82.9178 295° West 368 423 34,500 840 Climbing Cleveland Center
03:04PM 41.1664 -83.0408 297° West 363 418 34,900 240 Climbing Cleveland Center
03:05PM 41.2075 -83.1583 295° West 369 425 35,000  Climbing Cleveland Center
03:06PM 41.2567 -83.2928 296° West 386 444 35,000 120 Level Cleveland Center
03:07PM 41.2886 -83.4378 286° West 400 460 35,300 480 Climbing Cleveland Center
03:08PM 41.3206 -83.5719 288° West 400 460 36,000 300 Climbing Cleveland Center
03:09PM 41.3542 -83.7147 287° West 405 466 36,000 240 Level Cleveland Center
03:10PM 41.3878 -83.8547 288° West 405 466 36,500 540 Climbing Cleveland Center
03:11PM 41.4272 -83.9853 292° West 395 455 37,100 540 Climbing Chicago Center
03:12PM 41.4600 -84.1222 288° West 391 450 37,700 480 Climbing Chicago Center
03:13PM 41.4914 -84.2567 287° West 383 441 38,200 480 Climbing Chicago Center
03:15PM 41.5314 -84.4164 289° West 380 437 38,800 420 Climbing Chicago Center
03:16PM 41.5608 -84.5511 286° West 379 436 39,100 240 Climbing Chicago Center
03:17PM 41.6008 -84.6803 293° West 381 438 39,300 240 Climbing Chicago Center
03:18PM 41.6469 -84.8044 296° West 377 434 39,700 300 Climbing Chicago Center
03:19PM 41.6911 -84.9311 295° West 379 436 40,000 120 Climbing Chicago Center
03:20PM 41.7458 -85.0808 296° West 378 435 40,000  Level Chicago Center
03:21PM 41.7914 -85.2044 296° West 376 433 40,000  Level Chicago Center
03:22PM 41.8331 -85.3303 294° West 376 433 40,000  Level Chicago Center
03:23PM 41.8781 -85.4533 296° West 374 430 40,000  Level Chicago Center
03:24PM 41.9278 -85.6025 294° West 370 426 40,000  Level Chicago Center
03:25PM 41.9728 -85.7253 296° West 369 425 40,000  Level Chicago Center
03:26PM 42.0150 -85.8494 295° West 368 423 40,000  Level Chicago Center
03:27PM 42.0583 -85.9747 295° West 371 427 40,000  Level Chicago Center
03:28PM 42.1017 -86.0978 295° West 367 422 40,000  Level Chicago Center
03:29PM 42.1506 -86.2492 294° West 369 425 40,000  Level Chicago Center
03:30PM 42.1972 -86.3717 297° West 369 425 40,000  Level Chicago Center
03:31PM 42.2342 -86.5000 291° West 368 423 40,000  Level Chicago Center
03:32PM 42.2806 -86.6231 297° West 368 423 40,000  Level Chicago Center
03:33PM 42.3228 -86.7531 294° West 370 426 40,000  Level Chicago Center
03:34PM 42.3622 -86.8789 293° West 367 422 40,000  Level Chicago Center
03:35PM 42.4164 -87.0267 296° West 368 423 40,000  Level Chicago Center
03:36PM 42.4531 -87.1536 291° West 369 425 40,000  Level Chicago Center
03:37PM 42.4975 -87.2789 296° West 373 429 40,000  Level Chicago Center
03:38PM 42.5378 -87.4056 293° West 371 427 40,000  Level Chicago Center
03:39PM 42.5797 -87.5319 294° West 371 427 40,000  Level Chicago Center
03:40PM 42.6267 -87.6775 294° West 373 429 40,000  Level Chicago Center
03:41PM 42.6678 -87.8056 294° West 370 426 40,000  Level Chicago Center
03:42PM 42.7100 -87.9339 294° West 371 427 40,000  Level Chicago Center
03:43PM 42.7569 -88.0869 293° West 373 429 40,000  Level Chicago Center
03:45PM 42.7983 -88.2150 294° West 370 426 40,000  Level Chicago Center
03:46PM 42.8406 -88.3419 294° West 370 426 40,000  Level Chicago Center
03:47PM 42.8794 -88.4750 292° West 373 429 40,000  Level Chicago Center
03:48PM 42.9214 -88.6039 294° West 371 427 40,000  Level Chicago Center
03:49PM 42.9603 -88.7333 292° West 366 421 40,000  Level Chicago Center
03:50PM 43.0092 -88.8847 294° West 370 426 40,000  Level Chicago Center
03:51PM 43.0486 -89.0147 293° West 367 422 40,000  Level Chicago Center
03:52PM 43.0878 -89.1436 293° West 366 421 40,000  Level Chicago Center
03:53PM 43.1269 -89.2731 293° West 366 421 40,000  Level Chicago Center
03:54PM 43.1689 -89.4033 294° West 371 427 40,000  Level Chicago Center
03:55PM 43.2081 -89.5344 292° West 371 427 40,000  Level Chicago Center
03:56PM 43.2461 -89.6644 292° West 368 423 40,000  Level Chicago Center
03:57PM 43.2900 -89.8203 291° West 374 430 40,000  Level Chicago Center
03:58PM 43.3311 -89.9503 294° West 372 428 40,000  Level Chicago Center
03:59PM 43.3689 -90.0844 291° West 374 430 40,000  Level Chicago Center
04:00PM 43.4092 -90.2178 293° West 378 435 40,000  Level Chicago Center
04:01PM 43.4481 -90.3447 293° West 375 432 40,000  Level Chicago Center
04:02PM 43.4914 -90.5050 290° West 375 432 40,000  Level Chicago Center
04:03PM 43.5325 -90.6347 294° West 374 430 40,000  Level Chicago Center
04:04PM 43.5622 -90.7419 291° West 376 433 40,000  Level Minneapolis Center
04:05PM 43.6083 -90.8983 292° West 374 430 40,000  Level Minneapolis Center
04:06PM 43.6467 -91.0297 292° West 373 429 40,000  Level Minneapolis Center
04:07PM 43.6836 -91.1617 291° West 374 430 40,000  Level Minneapolis Center
04:08PM 43.7211 -91.2931 292° West 373 429 40,000  Level Minneapolis Center
04:09PM 43.7653 -91.4547 291° West 377 434 40,000  Level Minneapolis Center
04:10PM 43.8044 -91.5875 292° West 378 435 40,000  Level Minneapolis Center
04:11PM 43.8450 -91.7336 291° West 375 432 40,000  Level Minneapolis Center
04:12PM 43.8808 -91.8681 290° West 373 429 40,000  Level Minneapolis Center
04:13PM 43.9189 -92.0014 292° West 373 429 40,000  Level Minneapolis Center
04:14PM 43.9531 -92.1347 290° West 369 425 40,000  Level Minneapolis Center
04:15PM 43.9900 -92.2667 291° West 369 425 40,000  Level Minneapolis Center
04:16PM 44.0317 -92.4250 290° West 365 420 40,000  Level Minneapolis Center
04:18PM 44.0689 -92.5586 291° West 369 425 40,000  Level Minneapolis Center
04:19PM 44.1033 -92.6906 290° West 365 420 40,000  Level Minneapolis Center
04:20PM 44.1458 -92.8528 290° West 371 427 40,000  Level Minneapolis Center
04:21PM 44.1819 -92.9869 291° West 371 427 40,000  Level Minneapolis Center
04:22PM 44.2164 -93.1233 289° West 372 428 40,000  Level Minneapolis Center
04:23PM 44.2581 -93.2844 290° West 369 425 40,000  Level Minneapolis Center
04:24PM 44.2950 -93.4169 291° West 366 421 40,000  Level Minneapolis Center
04:25PM 44.3275 -93.5514 289° West 365 420 40,000  Level Minneapolis Center
04:26PM 44.3628 -93.6844 290° West 365 420 40,000  Level Minneapolis Center
04:27PM 44.3953 -93.8172 289° West 363 418 40,000  Level Minneapolis Center
04:28PM 44.4303 -93.9494 290° West 362 417 40,000  Level Minneapolis Center
04:29PM 44.4633 -94.0839 289° West 365 420 40,000  Level Minneapolis Center
04:30PM 44.5028 -94.2431 289° West 364 419 40,000  Level Minneapolis Center
04:31PM 44.5383 -94.3753 291° West 363 418 40,000 -480 Level Minneapolis Center
04:32PM 44.5686 -94.5131 287° West 369 425 39,100 -780 Descending Minneapolis Center
04:33PM 44.6042 -94.6439 291° West 368 423 38,500 -900 Descending Minneapolis Center
04:34PM 44.6397 -94.8061 287° West 365 420 37,300 -1,080 Descending Minneapolis Center
04:35PM 44.6733 -94.9367 290° West 360 414 36,300 -660 Descending Minneapolis Center
04:36PM 44.7044 -95.0678 289° West 357 411 36,000 -180 Descending Minneapolis Center
04:37PM 44.7325 -95.1992 287° West 354 407 36,000  Level Minneapolis Center
04:38PM 44.7678 -95.3308 291° West 360 414 36,000  Level Minneapolis Center
04:39PM 44.7967 -95.4661 287° West 363 418 36,000  Level Minneapolis Center
04:40PM 44.8369 -95.6283 289° West 368 423 36,000  Level Minneapolis Center
04:42PM 44.8683 -95.7636 288° West 367 422 36,000  Level Minneapolis Center
04:43PM 44.9003 -95.9003 288° West 370 426 36,000  Level Minneapolis Center
04:44PM 44.9322 -96.0358 288° West 368 423 36,000  Level Minneapolis Center
04:45PM 44.9617 -96.1728 287° West 367 422 36,000  Level Minneapolis Center
04:46PM 45.0011 -96.3367 289° West 368 423 36,000 -300 Level Minneapolis Center
04:47PM 45.0325 -96.4756 288° West 372 428 35,500 -1,440 Descending Minneapolis Center
04:48PM 45.0619 -96.6131 287° West 369 425 33,100 -2,460 Descending Minneapolis Center
04:49PM 45.0942 -96.7494 289° West 367 422 30,500 -1,860 Descending Minneapolis Center
04:50PM 45.1161 -96.8592 286° West 365 420 29,300 -1,140 Descending Minneapolis Center
04:51PM 45.1614 -97.0550 288° West 375 432 28,200 -2,160 Descending Minneapolis Center
04:52PM 45.1936 -97.1981 288° West 381 438 24,800 -2,880 Descending Minneapolis Center
04:53PM 45.2253 -97.3461 287° West 391 450 22,300 -2,820 Descending Minneapolis Center
04:54PM 45.2569 -97.4931 287° West 390 449 19,000 -3,480 Descending Minneapolis Center
04:55PM 45.2881 -97.6383 287° West 386 444 15,200 -3,720 Descending Minneapolis Center
04:56PM 45.3214 -97.8039 286° West 367 422 11,400 -2,640 Descending Minneapolis Center
04:57PM 45.3444 -97.9189 286° West 321 369 9,800 -2,040 Descending Minneapolis Center
04:58PM 45.3664 -98.0186 287° West 272 313 7,200 -2,400 Descending Minneapolis Center
04:59PM 45.3814 -98.1206 282° West 266 306 4,900 -1,440 Descending Minneapolis Center
05:00PM 45.3886 -98.2397 275° West 265 305 4,200 -660 Descending Minneapolis Center
05:02PM 45.4333 -98.4106 270° West  Level FlightAware Approximate
05:09PM 45.4333 -98.4167 270° West  Level FlightAware Approximate